Danbury, CT (06811)

2:23 AM EST on January 18, 2017 (GMT -0500)
| | Change Station
Active Advisory: Special Statement

Elev -9999 ft 0.00 °N, 0.00 °E | Updated 1 minute ago

Rain
Rain
°F
Feels Like °F
N
Wind Variable Wind from North
Gusts mph

Today
High -- | Low -- °F
--% Chance of Precip.
Yesterday
High -- | Low -- °F
Precip. -- in
Pressure 29.93 in
Visibility 6.0 miles
Clouds Overcast 500 ft
Dew Point Not available.
Humidity Not available.
Rainfall --
Snow Depth Not available.
7:16 AM 4:53 PM
Waning Gibbous, 65% visible
SPECI KDXR 180706Z AUTO 07005KT 6SM BR OVC005 02/01 A2993 RMK AO2 T00170006
Pressure 29.93 in
Visibility 6.0 miles
Clouds Overcast 500 ft
Dew Point Not available.
Humidity Not available.
Rainfall --
Snow Depth Not available.
7:16 AM 4:53 PM
Waning Gibbous, 65% visible
SPECI KDXR 180706Z AUTO 07005KT 6SM BR OVC005 02/01 A2993 RMK AO2 T00170006

Get Your Daily Forecast Email!

Thanks for signing up!

Be on the lookout for a verification email in your inbox.

You'll start receiving the daily forecast at 8 AM.

×

10-Day Weather Forecast

Almanac

Astronomy

Jan. 18, 2017 Rise Set
Actual Time
Civil Twilight
Nautical Twilight
Astronomical Twilight
Moon
Length of Visible Light
Length of Day
Tomorrow will be .
, % of the Moon is Illuminated

Today's Extremes

State Highs State Lows

Community

WunderPhotos

Upload Photos

1,962,540 photos uploaded!

WunderBlog® & News

Nearby

Air Quality

  Air Quality AQ Index Pollutant
Not available.

Snow Depth

Station Depth Elevation

Earthquake Activity

City Distance Mag. Time & Date
Minimum magnitude displayed is 2.5.

Coastal Water Temperatures

Place Temperature

Stations

Nearby Weather Stations

Station Location Temp. Windchill Dew Point Humidity Wind Precip. Elev Updated Type
                   

Watches & Warnings

Special Statement
Issued: 1:21 AM EST Jan. 18, 2017 – National Weather Service

Some spotty light freezing rain or freezing drizzle is possible
overnight into early this morning in the higher elevations mainly
above 750 feet, where air and ground temperatures are at or just
below freezing. Be prepared for slippery driving and walking
conditions in these areas. Slow down and use extra caution.



121 am EST Wed Jan 18 2017

Some spotty light freezing rain or freezing drizzle is possible
overnight into early this morning in the higher elevations mainly
above 750 feet, where air and ground temperatures are at or just
below freezing. Be prepared for slippery driving and walking
conditions in these areas. Slow down and use extra caution.



121 am EST Wed Jan 18 2017

Some spotty light freezing rain or freezing drizzle is possible
overnight into early this morning in the higher elevations mainly
above 750 feet, where air and ground temperatures are at or just
below freezing. Be prepared for slippery driving and walking
conditions in these areas. Slow down and use extra caution.